createdAt,value
2016-09-21T00:00:08.741Z,20.54
2016-09-21T00:00:41.067Z,20.57
2016-09-21T00:01:13.376Z,20.57
2016-09-21T00:01:45.704Z,20.6
2016-09-21T00:02:18.042Z,20.63
2016-09-21T00:02:50.362Z,20.57
2016-09-21T00:03:22.684Z,20.6
2016-09-21T00:03:55.018Z,20.6
2016-09-21T00:04:27.351Z,20.56
2016-09-21T00:04:59.707Z,20.58
2016-09-21T00:05:32.010Z,20.57
2016-09-21T00:06:04.332Z,20.57
2016-09-21T00:06:36.668Z,20.63
2016-09-21T00:07:09.002Z,20.63
2016-09-21T00:07:41.336Z,20.57
2016-09-21T00:08:13.658Z,20.61
2016-09-21T00:08:45.977Z,20.57
2016-09-21T00:09:18.310Z,20.6
2016-09-21T00:09:50.631Z,20.54
2016-09-21T00:10:22.950Z,20.56
2016-09-21T00:10:55.269Z,20.6
2016-09-21T00:11:27.584Z,20.58
2016-09-21T00:11:59.916Z,20.54
2016-09-21T00:12:32.267Z,20.56
2016-09-21T00:13:04.597Z,20.6
2016-09-21T00:13:36.920Z,20.54
2016-09-21T00:14:09.255Z,20.61
2016-09-21T00:14:41.598Z,20.61
2016-09-21T00:15:13.942Z,20.58
2016-09-21T00:15:46.262Z,20.56
2016-09-21T00:16:18.613Z,20.58
2016-09-21T00:16:50.940Z,20.53
2016-09-21T00:17:23.265Z,20.44
2016-09-21T00:17:55.591Z,20.51
2016-09-21T00:18:27.892Z,20.57
2016-09-21T00:19:00.226Z,20.58
2016-09-21T00:19:32.543Z,20.53
2016-09-21T00:20:04.876Z,20.49
2016-09-21T00:20:37.200Z,20.49
2016-09-21T00:21:09.518Z,20.51
2016-09-21T00:21:41.853Z,20.56
2016-09-21T00:22:14.191Z,20.49
2016-09-21T00:22:46.518Z,20.51
2016-09-21T00:23:18.852Z,20.48
2016-09-21T00:23:51.184Z,20.41
2016-09-21T00:24:23.509Z,20.49
2016-09-21T00:24:55.833Z,20.49
2016-09-21T00:25:28.150Z,20.49
2016-09-21T00:26:00.481Z,20.49
2016-09-21T00:26:32.847Z,20.46
2016-09-21T00:27:05.176Z,20.51
2016-09-21T00:27:37.483Z,20.49
2016-09-21T00:28:09.808Z,20.57
2016-09-21T00:28:42.130Z,20.53
2016-09-21T00:29:14.480Z,20.49
2016-09-21T00:29:46.812Z,20.51
2016-09-21T00:30:19.149Z,20.51
2016-09-21T00:30:51.494Z,20.51
2016-09-21T00:31:23.804Z,20.46
2016-09-21T00:31:56.139Z,20.46
2016-09-21T00:32:28.466Z,20.48
2016-09-21T00:33:01.709Z,20.53
2016-09-21T00:33:34.026Z,20.51
2016-09-21T00:34:06.347Z,20.51
2016-09-21T00:34:38.671Z,20.48
2016-09-21T00:35:10.994Z,20.44
2016-09-21T00:35:43.318Z,20.51
2016-09-21T00:36:15.635Z,20.48
2016-09-21T00:36:47.978Z,20.51
2016-09-21T00:37:20.300Z,20.48
2016-09-21T00:37:52.619Z,20.51
2016-09-21T00:38:24.953Z,20.41
2016-09-21T00:38:57.266Z,20.42
2016-09-21T00:39:29.595Z,20.44
2016-09-21T00:40:01.924Z,20.44
2016-09-21T00:40:34.238Z,20.4
2016-09-21T00:41:06.582Z,20.41
2016-09-21T00:41:38.900Z,20.48
2016-09-21T00:42:11.232Z,20.41
2016-09-21T00:42:43.557Z,20.4
2016-09-21T00:43:15.878Z,20.46
2016-09-21T00:43:48.220Z,20.42
2016-09-21T00:44:20.537Z,20.46
2016-09-21T00:44:52.869Z,20.41
2016-09-21T00:45:25.184Z,20.41
2016-09-21T00:45:57.514Z,20.41
2016-09-21T00:46:29.847Z,20.4
2016-09-21T00:47:02.159Z,20.42
2016-09-21T00:47:34.496Z,20.42
2016-09-21T00:48:06.829Z,20.41
2016-09-21T00:48:39.177Z,20.37
2016-09-21T00:49:11.519Z,20.41
2016-09-21T00:49:43.841Z,20.42
2016-09-21T00:50:16.174Z,20.4
2016-09-21T00:50:48.504Z,20.35
2016-09-21T00:51:20.832Z,20.38
2016-09-21T00:51:53.176Z,20.38
2016-09-21T00:52:25.494Z,20.4
2016-09-21T00:52:57.812Z,20.37
2016-09-21T00:53:30.141Z,20.46
2016-09-21T00:54:02.459Z,20.53
2016-09-21T00:54:34.772Z,20.38
2016-09-21T00:55:07.092Z,20.53
2016-09-21T00:55:39.409Z,20.4
2016-09-21T00:56:11.736Z,20.38
2016-09-21T00:56:44.052Z,20.38
2016-09-21T00:57:16.363Z,20.35
2016-09-21T00:57:48.703Z,20.41
2016-09-21T00:58:21.026Z,20.46
2016-09-21T00:58:53.367Z,20.44
2016-09-21T00:59:25.676Z,20.4
2016-09-21T00:59:57.997Z,20.44
2016-09-21T01:00:30.324Z,20.37
2016-09-21T01:01:02.656Z,20.37
2016-09-21T01:01:35.003Z,20.49
2016-09-21T01:02:07.317Z,20.41
2016-09-21T01:02:39.644Z,20.34
2016-09-21T01:03:11.964Z,20.48
2016-09-21T01:03:44.299Z,20.49
2016-09-21T01:04:16.638Z,20.38
2016-09-21T01:04:48.961Z,20.41
2016-09-21T01:05:21.300Z,20.37
2016-09-21T01:05:53.636Z,20.37
2016-09-21T01:06:25.956Z,20.32
2016-09-21T01:06:58.283Z,20.37
2016-09-21T01:07:30.612Z,20.38
2016-09-21T01:08:02.950Z,20.38
2016-09-21T01:08:35.330Z,20.41
2016-09-21T01:09:07.688Z,20.41
2016-09-21T01:09:40.024Z,20.37
2016-09-21T01:10:12.358Z,20.38
2016-09-21T01:10:44.662Z,20.37
2016-09-21T01:11:16.997Z,20.32
2016-09-21T01:11:49.332Z,20.37
2016-09-21T01:12:21.648Z,20.42
2016-09-21T01:12:53.981Z,20.42
2016-09-21T01:13:26.308Z,20.41
2016-09-21T01:13:58.634Z,20.48
2016-09-21T01:14:30.962Z,20.38
2016-09-21T01:15:03.288Z,20.4
2016-09-21T01:15:36.432Z,20.4
2016-09-21T01:16:08.767Z,20.37
2016-09-21T01:16:41.105Z,20.35
2016-09-21T01:17:13.423Z,20.38
2016-09-21T01:17:45.766Z,20.41
2016-09-21T01:18:18.094Z,20.37
2016-09-21T01:18:50.407Z,20.37
2016-09-21T01:19:22.732Z,20.35
2016-09-21T01:19:55.055Z,20.32
2016-09-21T01:20:27.388Z,20.38
2016-09-21T01:20:59.728Z,20.3
2016-09-21T01:21:32.072Z,20.38
2016-09-21T01:22:04.404Z,20.32
2016-09-21T01:22:36.722Z,20.34
2016-09-21T01:23:09.051Z,20.37
2016-09-21T01:23:41.378Z,20.41
2016-09-21T01:24:13.719Z,20.44
2016-09-21T01:24:46.075Z,20.35
2016-09-21T01:25:18.390Z,20.34
2016-09-21T01:25:50.722Z,20.35
2016-09-21T01:26:23.068Z,20.34
2016-09-21T01:26:55.422Z,20.37
2016-09-21T01:27:27.731Z,20.35
2016-09-21T01:28:00.056Z,20.38
2016-09-21T01:28:32.381Z,20.38
2016-09-21T01:29:04.704Z,20.34
2016-09-21T01:29:37.018Z,20.35
2016-09-21T01:30:09.329Z,20.35
2016-09-21T01:30:41.666Z,20.34
2016-09-21T01:31:13.984Z,20.37
2016-09-21T01:31:46.310Z,20.37
2016-09-21T01:32:18.656Z,20.34
2016-09-21T01:32:50.988Z,20.37
2016-09-21T01:33:23.316Z,20.4
2016-09-21T01:33:55.651Z,20.38
2016-09-21T01:34:27.992Z,20.35
2016-09-21T01:35:00.313Z,20.32
2016-09-21T01:35:32.639Z,20.32
2016-09-21T01:36:04.967Z,20.38
2016-09-21T01:36:37.309Z,20.35
2016-09-21T01:37:09.646Z,20.32
2016-09-21T01:37:41.977Z,20.37
2016-09-21T01:38:14.338Z,20.35
2016-09-21T01:38:46.672Z,20.35
2016-09-21T01:39:18.988Z,20.34
2016-09-21T01:39:51.325Z,20.35
2016-09-21T01:40:23.631Z,20.27
2016-09-21T01:40:55.964Z,20.35
2016-09-21T01:41:28.293Z,20.37
2016-09-21T01:42:00.622Z,20.35
2016-09-21T01:42:32.932Z,20.3
2016-09-21T01:43:05.245Z,20.37
2016-09-21T01:43:37.580Z,20.32
2016-09-21T01:44:09.905Z,20.37
2016-09-21T01:44:42.257Z,20.37
2016-09-21T01:45:14.588Z,20.32
2016-09-21T01:45:46.928Z,20.3
2016-09-21T01:46:19.266Z,20.34
2016-09-21T01:46:51.605Z,20.25
2016-09-21T01:47:23.929Z,20.19
2016-09-21T01:47:56.243Z,20.34
2016-09-21T01:48:28.574Z,20.37
2016-09-21T01:49:00.907Z,20.27
2016-09-21T01:49:33.226Z,20.3
2016-09-21T01:50:05.546Z,20.37
2016-09-21T01:50:37.902Z,20.32
2016-09-21T01:51:10.256Z,20.34
2016-09-21T01:51:42.597Z,20.25
2016-09-21T01:52:14.924Z,20.35
2016-09-21T01:52:47.241Z,20.26
2016-09-21T01:53:19.583Z,20.37
2016-09-21T01:53:51.940Z,20.2
2016-09-21T01:54:24.280Z,20.22
2016-09-21T01:54:56.613Z,20.27
2016-09-21T01:55:28.931Z,20.38
2016-09-21T01:56:01.252Z,20.25
2016-09-21T01:56:33.581Z,20.23
2016-09-21T01:57:05.917Z,20.26
2016-09-21T01:57:38.251Z,20.35
2016-09-21T01:58:10.575Z,20.23
2016-09-21T01:58:42.914Z,20.25
2016-09-21T01:59:15.260Z,20.29
2016-09-21T01:59:47.607Z,20.32
2016-09-21T02:00:19.934Z,20.37
2016-09-21T02:00:52.256Z,20.25
2016-09-21T02:01:24.588Z,20.23
2016-09-21T02:01:56.918Z,20.25
2016-09-21T02:02:29.259Z,20.35
2016-09-21T02:03:01.576Z,20.23
2016-09-21T02:03:33.908Z,20.25
2016-09-21T02:04:06.228Z,20.34
2016-09-21T02:04:38.550Z,20.2
2016-09-21T02:05:10.880Z,20.22
2016-09-21T02:05:43.216Z,20.23
2016-09-21T02:06:15.537Z,20.2
2016-09-21T02:06:47.888Z,20.26
2016-09-21T02:07:20.225Z,20.27
2016-09-21T02:07:52.567Z,20.22
2016-09-21T02:08:24.888Z,20.27
2016-09-21T02:08:57.212Z,20.27
2016-09-21T02:09:29.539Z,20.26
2016-09-21T02:10:01.875Z,20.22
2016-09-21T02:10:34.207Z,20.23
2016-09-21T02:11:06.540Z,20.29
2016-09-21T02:11:38.863Z,20.26
2016-09-21T02:12:11.204Z,20.22
2016-09-21T02:12:43.536Z,20.23
2016-09-21T02:13:15.856Z,20.26
2016-09-21T02:13:48.183Z,20.22
2016-09-21T02:14:20.517Z,20.3
2016-09-21T02:14:52.847Z,20.27
2016-09-21T02:15:25.179Z,20.32
2016-09-21T02:15:57.507Z,20.27
2016-09-21T02:16:29.832Z,20.29
2016-09-21T02:17:02.176Z,20.27
2016-09-21T02:17:34.523Z,20.26
2016-09-21T02:18:06.857Z,20.3
2016-09-21T02:18:39.305Z,20.32
2016-09-21T02:19:11.635Z,20.18
2016-09-21T02:19:43.964Z,20.26
2016-09-21T02:20:16.293Z,20.26
2016-09-21T02:20:48.603Z,20.27
2016-09-21T02:21:20.911Z,20.22
2016-09-21T02:21:53.249Z,20.2
2016-09-21T02:22:25.572Z,20.26
2016-09-21T02:22:57.904Z,20.16
2016-09-21T02:23:30.259Z,20.32
2016-09-21T02:24:02.588Z,20.26
2016-09-21T02:24:34.922Z,20.27
2016-09-21T02:25:07.237Z,20.27
2016-09-21T02:25:39.559Z,20.27
2016-09-21T02:26:11.891Z,20.19
2016-09-21T02:26:44.212Z,20.2
2016-09-21T02:27:16.523Z,20.19
2016-09-21T02:27:48.844Z,20.23
2016-09-21T02:28:21.143Z,20.26
2016-09-21T02:28:53.449Z,20.16
2016-09-21T02:29:25.762Z,20.19
2016-09-21T02:29:58.074Z,20.26
2016-09-21T02:30:30.401Z,20.2
2016-09-21T02:31:02.712Z,20.18
2016-09-21T02:31:35.040Z,20.18
2016-09-21T02:32:07.372Z,20.19
2016-09-21T02:32:39.683Z,20.15
2016-09-21T02:33:12.002Z,20.23
2016-09-21T02:33:44.322Z,20.26
2016-09-21T02:34:16.645Z,20.26
2016-09-21T02:34:48.969Z,20.2
2016-09-21T02:35:21.303Z,20.2
2016-09-21T02:35:53.636Z,20.12
2016-09-21T02:36:25.964Z,20.2
2016-09-21T02:36:58.307Z,20.2
2016-09-21T02:37:30.651Z,20.15
2016-09-21T02:38:03.004Z,20.15
2016-09-21T02:38:35.337Z,20.15
2016-09-21T02:39:07.660Z,20.12
2016-09-21T02:39:39.991Z,20.23
2016-09-21T02:40:12.330Z,20.18
2016-09-21T02:40:44.653Z,20.2
2016-09-21T02:41:16.982Z,20.19
2016-09-21T02:41:49.307Z,20.16
2016-09-21T02:42:21.634Z,20.16
2016-09-21T02:42:53.961Z,20.18
2016-09-21T02:43:26.276Z,20.18
2016-09-21T02:43:58.604Z,20.19
2016-09-21T02:44:30.935Z,20.18
2016-09-21T02:45:03.264Z,20.19
2016-09-21T02:45:35.592Z,20.22
2016-09-21T02:46:07.915Z,20.22
2016-09-21T02:46:40.254Z,20.16
2016-09-21T02:47:12.585Z,20.16
2016-09-21T02:47:44.911Z,20.19
2016-09-21T02:48:17.231Z,20.18
2016-09-21T02:48:49.556Z,20.12
2016-09-21T02:49:21.879Z,20.12
2016-09-21T02:49:54.201Z,20.1
2016-09-21T02:50:26.526Z,20.18
2016-09-21T02:50:58.847Z,20.08
2016-09-21T02:51:31.177Z,20.19
2016-09-21T02:52:03.486Z,20.2
2016-09-21T02:52:35.809Z,20.15
2016-09-21T02:53:08.128Z,20.16
2016-09-21T02:53:40.436Z,20.18
2016-09-21T02:54:12.764Z,20.05
2016-09-21T02:54:45.094Z,20.05
2016-09-21T02:55:17.433Z,20.1
2016-09-21T02:55:49.750Z,20.08
2016-09-21T02:56:22.063Z,20.23
2016-09-21T02:56:54.392Z,20.18
2016-09-21T02:57:26.713Z,20.11
2016-09-21T02:57:59.048Z,20.12
2016-09-21T02:58:31.370Z,20.15
2016-09-21T02:59:03.684Z,20.12
2016-09-21T02:59:36.011Z,20.2
2016-09-21T03:00:08.328Z,20.16
2016-09-21T03:00:40.656Z,20.05
2016-09-21T03:01:12.977Z,20.11
2016-09-21T03:01:45.322Z,20.16
2016-09-21T03:02:17.654Z,20.19
2016-09-21T03:02:49.972Z,20.1
2016-09-21T03:03:22.304Z,20.11
2016-09-21T03:03:54.623Z,20.1
2016-09-21T03:04:26.958Z,20.07
2016-09-21T03:04:59.299Z,20.08
2016-09-21T03:05:31.601Z,20.08
2016-09-21T03:06:03.919Z,20.08
2016-09-21T03:06:36.240Z,20.02
2016-09-21T03:07:08.567Z,20.07
2016-09-21T03:07:40.907Z,20.07
2016-09-21T03:08:13.233Z,20.04
2016-09-21T03:08:45.568Z,20.07
2016-09-21T03:09:17.902Z,20.1
2016-09-21T03:09:50.208Z,20.07
2016-09-21T03:10:22.541Z,20.11
2016-09-21T03:10:54.862Z,20.02
2016-09-21T03:11:27.190Z,20.07
2016-09-21T03:11:59.511Z,20.2
2016-09-21T03:12:31.837Z,20.08
2016-09-21T03:13:04.151Z,20.01
2016-09-21T03:13:36.476Z,20.05
2016-09-21T03:14:08.807Z,20.01
2016-09-21T03:14:41.159Z,20.04
2016-09-21T03:15:13.492Z,20.01
2016-09-21T03:15:45.841Z,20.05
2016-09-21T03:16:18.158Z,20.02
2016-09-21T03:16:50.481Z,20.04
2016-09-21T03:17:22.793Z,20.08
2016-09-21T03:17:55.104Z,20.07
2016-09-21T03:18:27.428Z,20.01
2016-09-21T03:18:59.758Z,20.07
2016-09-21T03:19:32.077Z,20.07
2016-09-21T03:20:04.407Z,20.04
2016-09-21T03:20:36.738Z,19.97
2016-09-21T03:21:09.043Z,20.08
2016-09-21T03:21:41.359Z,20.07
2016-09-21T03:22:13.668Z,20.05
2016-09-21T03:22:45.974Z,20.08
2016-09-21T03:23:18.311Z,20.02
2016-09-21T03:23:50.641Z,20.05
2016-09-21T03:24:22.964Z,20.01
2016-09-21T03:24:55.297Z,20.01
2016-09-21T03:25:27.605Z,19.93
2016-09-21T03:25:59.924Z,19.95
2016-09-21T03:26:32.261Z,19.98
2016-09-21T03:27:04.597Z,19.98
2016-09-21T03:27:36.931Z,19.98
2016-09-21T03:28:09.271Z,20.01
2016-09-21T03:28:41.618Z,19.95
2016-09-21T03:29:13.971Z,19.93
2016-09-21T03:29:46.305Z,19.98
2016-09-21T03:30:18.624Z,19.98
2016-09-21T03:30:50.943Z,19.95
2016-09-21T03:31:23.269Z,19.9
2016-09-21T03:31:55.593Z,19.93
2016-09-21T03:32:27.912Z,19.93
2016-09-21T03:33:00.246Z,19.97
2016-09-21T03:33:32.560Z,19.92
2016-09-21T03:34:04.896Z,20
2016-09-21T03:34:37.235Z,19.98
2016-09-21T03:35:09.569Z,19.9
2016-09-21T03:35:41.904Z,19.97
2016-09-21T03:36:14.231Z,19.95
2016-09-21T03:36:46.529Z,19.93
2016-09-21T03:37:18.849Z,19.89
2016-09-21T03:37:51.176Z,19.86
2016-09-21T03:38:23.487Z,19.9
2016-09-21T03:38:55.819Z,19.93
2016-09-21T03:39:28.162Z,19.93
2016-09-21T03:40:00.488Z,19.85
2016-09-21T03:40:32.818Z,19.95
2016-09-21T03:41:05.137Z,19.92
2016-09-21T03:41:37.455Z,19.92
2016-09-21T03:42:09.771Z,19.85
2016-09-21T03:42:42.094Z,19.93
2016-09-21T03:43:14.460Z,19.86
2016-09-21T03:43:46.783Z,19.93
2016-09-21T03:44:19.108Z,19.89
2016-09-21T03:44:51.460Z,19.93
2016-09-21T03:45:23.790Z,19.92
2016-09-21T03:45:56.116Z,19.89
2016-09-21T03:46:28.440Z,19.89
2016-09-21T03:47:00.758Z,19.89
2016-09-21T03:47:33.097Z,19.87
2016-09-21T03:48:05.416Z,19.87
2016-09-21T03:48:37.742Z,19.9
2016-09-21T03:49:10.075Z,19.85
2016-09-21T03:49:42.405Z,19.92
2016-09-21T03:50:14.728Z,19.85
2016-09-21T03:50:47.041Z,19.86
2016-09-21T03:51:19.361Z,19.85
2016-09-21T03:51:51.705Z,19.85
2016-09-21T03:52:24.003Z,19.85
2016-09-21T03:52:56.339Z,19.85
2016-09-21T03:53:28.654Z,19.9
2016-09-21T03:54:00.988Z,19.87
2016-09-21T03:54:33.314Z,19.89
2016-09-21T03:55:05.659Z,19.89
2016-09-21T03:55:37.983Z,19.85
2016-09-21T03:56:10.307Z,19.89
2016-09-21T03:56:42.635Z,19.95
2016-09-21T03:57:14.963Z,19.86
2016-09-21T03:57:47.293Z,19.87
2016-09-21T03:58:19.616Z,19.87
2016-09-21T03:58:51.943Z,19.82
2016-09-21T03:59:26.296Z,19.83
2016-09-21T03:59:58.626Z,19.82
2016-09-21T04:00:30.949Z,19.87
2016-09-21T04:01:03.275Z,19.86
2016-09-21T04:01:35.649Z,19.8
2016-09-21T04:02:07.977Z,19.86
2016-09-21T04:02:40.309Z,19.83
2016-09-21T04:03:12.636Z,19.83
2016-09-21T04:03:44.977Z,19.82
2016-09-21T04:04:17.300Z,19.8
2016-09-21T04:04:49.625Z,19.79
2016-09-21T04:05:21.945Z,19.85
2016-09-21T04:05:54.296Z,19.82
2016-09-21T04:06:26.615Z,19.82
2016-09-21T04:06:58.939Z,19.83
2016-09-21T04:07:31.254Z,19.86
2016-09-21T04:08:03.575Z,19.78
2016-09-21T04:08:35.901Z,19.83
2016-09-21T04:09:08.232Z,19.78
2016-09-21T04:09:40.558Z,19.83
2016-09-21T04:10:12.873Z,19.83
2016-09-21T04:10:45.200Z,19.79
2016-09-21T04:11:17.537Z,19.78
2016-09-21T04:11:49.878Z,19.74
2016-09-21T04:12:22.188Z,19.8
2016-09-21T04:12:54.508Z,19.75
2016-09-21T04:13:26.838Z,19.82
2016-09-21T04:13:59.165Z,19.78
2016-09-21T04:14:31.493Z,19.78
2016-09-21T04:15:03.813Z,19.75
2016-09-21T04:15:36.136Z,19.83
2016-09-21T04:16:08.472Z,19.86
2016-09-21T04:16:40.793Z,19.75
2016-09-21T04:17:13.127Z,19.82
2016-09-21T04:17:45.450Z,19.8
2016-09-21T04:18:17.785Z,19.71
2016-09-21T04:18:50.774Z,19.8
2016-09-21T04:19:23.161Z,19.72
2016-09-21T04:19:55.495Z,19.7
2016-09-21T04:20:27.835Z,19.71
2016-09-21T04:21:00.152Z,19.82
2016-09-21T04:21:32.478Z,19.72
2016-09-21T04:22:04.789Z,19.78
2016-09-21T04:22:37.127Z,19.79
2016-09-21T04:23:09.456Z,19.7
2016-09-21T04:23:41.778Z,19.68
2016-09-21T04:24:14.085Z,19.72
2016-09-21T04:24:46.395Z,19.71
2016-09-21T04:25:18.701Z,19.71
2016-09-21T04:25:51.034Z,19.71
2016-09-21T04:26:23.366Z,19.75
2016-09-21T04:26:55.699Z,19.74
2016-09-21T04:27:28.022Z,19.64
2016-09-21T04:28:00.339Z,19.71
2016-09-21T04:28:32.678Z,19.71
2016-09-21T04:29:05.009Z,19.72
2016-09-21T04:29:37.341Z,19.71
2016-09-21T04:30:09.693Z,19.68
2016-09-21T04:30:42.018Z,19.68
2016-09-21T04:31:14.331Z,19.68
2016-09-21T04:31:46.653Z,19.64
2016-09-21T04:32:18.967Z,19.7
2016-09-21T04:32:51.310Z,19.68
2016-09-21T04:33:23.666Z,19.68
2016-09-21T04:33:56.776Z,19.65
2016-09-21T04:34:29.105Z,19.65
2016-09-21T04:35:01.428Z,19.65
2016-09-21T04:35:33.761Z,19.68
2016-09-21T04:36:06.087Z,19.71
2016-09-21T04:36:38.415Z,19.67
2016-09-21T04:37:10.746Z,19.65
2016-09-21T04:37:43.083Z,19.68
2016-09-21T04:38:15.435Z,19.68
2016-09-21T04:38:47.755Z,19.67
2016-09-21T04:39:20.087Z,19.7
2016-09-21T04:39:52.425Z,19.7
2016-09-21T04:40:24.749Z,19.67
2016-09-21T04:40:57.068Z,19.67
2016-09-21T04:41:29.397Z,19.64
2016-09-21T04:42:01.729Z,19.64
2016-09-21T04:42:34.060Z,19.71
2016-09-21T04:43:06.392Z,19.67
2016-09-21T04:43:38.702Z,19.68
2016-09-21T04:44:11.037Z,19.61
2016-09-21T04:44:43.399Z,19.65
2016-09-21T04:45:15.739Z,19.63
2016-09-21T04:45:48.067Z,19.55
2016-09-21T04:46:20.389Z,19.61
2016-09-21T04:46:52.712Z,19.65
2016-09-21T04:47:25.053Z,19.56
2016-09-21T04:47:57.406Z,19.64
2016-09-21T04:48:29.742Z,19.61
2016-09-21T04:49:02.087Z,19.61
2016-09-21T04:49:34.422Z,19.56
2016-09-21T04:50:06.753Z,19.61
2016-09-21T04:50:39.061Z,19.56
2016-09-21T04:51:11.396Z,19.57
2016-09-21T04:51:43.720Z,19.64
2016-09-21T04:52:16.038Z,19.57
2016-09-21T04:52:48.366Z,19.63
2016-09-21T04:53:20.705Z,19.61
2016-09-21T04:53:53.034Z,19.61
2016-09-21T04:54:25.367Z,19.6
2016-09-21T04:54:57.688Z,19.52
2016-09-21T04:55:30.016Z,19.53
2016-09-21T04:56:02.347Z,19.53
2016-09-21T04:56:34.663Z,19.49
2016-09-21T04:57:06.977Z,19.56
2016-09-21T04:57:39.304Z,19.52
2016-09-21T04:58:11.635Z,19.52
2016-09-21T04:58:43.940Z,19.47
2016-09-21T04:59:16.268Z,19.52
2016-09-21T04:59:48.587Z,19.47
2016-09-21T05:00:20.911Z,19.5
2016-09-21T05:00:53.242Z,19.52
2016-09-21T05:01:25.564Z,19.53
2016-09-21T05:01:57.884Z,19.47
2016-09-21T05:02:30.214Z,19.55
2016-09-21T05:03:02.540Z,19.55
2016-09-21T05:03:34.870Z,19.5
2016-09-21T05:04:07.197Z,19.53
2016-09-21T05:04:39.547Z,19.52
2016-09-21T05:05:11.870Z,19.5
2016-09-21T05:05:44.197Z,19.57
2016-09-21T05:06:16.519Z,19.52
2016-09-21T05:06:48.950Z,19.5
2016-09-21T05:07:21.279Z,19.49
2016-09-21T05:07:53.647Z,19.49
2016-09-21T05:08:25.977Z,19.5
2016-09-21T05:08:58.305Z,19.47
2016-09-21T05:09:30.682Z,19.5
2016-09-21T05:10:03.011Z,19.5
2016-09-21T05:10:35.332Z,19.47
2016-09-21T05:11:08.354Z,19.49
2016-09-21T05:11:40.721Z,19.47
2016-09-21T05:12:13.042Z,19.46
2016-09-21T05:12:45.462Z,19.53
2016-09-21T05:13:17.813Z,19.49
2016-09-21T05:13:50.151Z,19.52
2016-09-21T05:14:22.477Z,19.52
2016-09-21T05:14:54.808Z,19.45
2016-09-21T05:15:27.145Z,19.49
2016-09-21T05:15:59.477Z,19.42
2016-09-21T05:16:31.786Z,19.5
2016-09-21T05:17:04.123Z,19.47
2016-09-21T05:17:36.441Z,19.55
2016-09-21T05:18:08.769Z,19.47
2016-09-21T05:18:41.079Z,19.49
2016-09-21T05:19:13.413Z,19.49
2016-09-21T05:19:45.735Z,19.55
2016-09-21T05:20:18.071Z,19.46
2016-09-21T05:20:50.409Z,19.53
2016-09-21T05:21:22.722Z,19.49
2016-09-21T05:21:55.037Z,19.43
2016-09-21T05:22:27.354Z,19.49
2016-09-21T05:22:59.686Z,19.55
2016-09-21T05:23:31.989Z,19.56
2016-09-21T05:24:04.300Z,19.52
2016-09-21T05:24:36.624Z,19.45
2016-09-21T05:25:08.942Z,19.45
2016-09-21T05:25:41.300Z,19.46
2016-09-21T05:26:13.615Z,19.49
2016-09-21T05:26:45.933Z,19.52
2016-09-21T05:27:18.256Z,19.45
2016-09-21T05:27:50.572Z,19.42
2016-09-21T05:28:22.893Z,19.55
2016-09-21T05:28:55.408Z,19.56
2016-09-21T05:29:29.651Z,19.53
2016-09-21T05:30:03.453Z,19.42
2016-09-21T05:30:36.788Z,19.45
2016-09-21T05:31:09.111Z,19.53
2016-09-21T05:31:42.365Z,19.49
2016-09-21T05:32:14.685Z,19.4
2016-09-21T05:32:47.020Z,19.45
2016-09-21T05:33:19.347Z,19.47
2016-09-21T05:33:52.290Z,19.46
2016-09-21T05:34:24.613Z,19.43
2016-09-21T05:34:56.938Z,19.42
2016-09-21T05:35:29.281Z,19.49
2016-09-21T05:36:01.837Z,19.52
2016-09-21T05:36:34.142Z,19.42
2016-09-21T05:37:06.632Z,19.46
2016-09-21T05:37:39.311Z,19.4
2016-09-21T05:38:11.619Z,19.47
2016-09-21T05:38:43.981Z,19.46
2016-09-21T05:39:16.292Z,19.47
2016-09-21T05:39:48.604Z,19.46
2016-09-21T05:40:20.937Z,19.46
2016-09-21T05:40:53.265Z,19.43
2016-09-21T05:41:25.600Z,19.45
2016-09-21T05:41:57.912Z,19.38
2016-09-21T05:42:30.242Z,19.46
2016-09-21T05:43:02.539Z,19.43
2016-09-21T05:43:34.889Z,19.42
2016-09-21T05:44:07.235Z,19.42
2016-09-21T05:44:39.865Z,19.45
2016-09-21T05:45:12.548Z,19.46
2016-09-21T05:45:45.150Z,19.45
2016-09-21T05:46:17.743Z,19.42
2016-09-21T05:46:50.310Z,19.45
2016-09-21T05:47:22.958Z,19.56
2016-09-21T05:47:55.520Z,19.47
2016-09-21T05:48:28.150Z,19.42
2016-09-21T05:49:01.380Z,19.49
2016-09-21T05:49:34.918Z,19.43
2016-09-21T05:50:09.391Z,19.4
2016-09-21T05:50:44.439Z,19.4
2016-09-21T05:51:16.947Z,19.4
2016-09-21T05:51:49.264Z,19.42
2016-09-21T05:52:21.592Z,19.43
2016-09-21T05:52:53.922Z,19.42
2016-09-21T05:53:26.236Z,19.42
2016-09-21T05:53:58.566Z,19.4
2016-09-21T05:54:30.891Z,19.45
2016-09-21T05:55:03.204Z,19.46
2016-09-21T05:55:35.518Z,19.45
2016-09-21T05:56:07.914Z,19.4
2016-09-21T05:56:40.236Z,19.46
2016-09-21T05:57:12.552Z,19.47
2016-09-21T05:57:45.025Z,19.45
2016-09-21T05:58:17.690Z,19.43
2016-09-21T05:58:50.425Z,19.46
2016-09-21T05:59:23.817Z,19.42
2016-09-21T06:00:02.232Z,19.34
2016-09-21T06:00:34.668Z,19.42
2016-09-21T06:01:06.983Z,19.4
2016-09-21T06:01:39.318Z,19.42
2016-09-21T06:02:11.621Z,19.45
2016-09-21T06:02:43.944Z,19.52
2016-09-21T06:03:16.258Z,19.49
2016-09-21T06:03:48.577Z,19.45
2016-09-21T06:04:20.906Z,19.5
2016-09-21T06:04:53.294Z,19.52
2016-09-21T06:05:25.608Z,19.55
2016-09-21T06:05:57.932Z,19.55
2016-09-21T06:06:30.259Z,19.55
2016-09-21T06:07:02.583Z,19.43
2016-09-21T06:07:35.079Z,19.49
2016-09-21T06:08:08.387Z,19.45
2016-09-21T06:08:42.194Z,19.46
2016-09-21T06:09:18.376Z,19.5
2016-09-21T06:09:53.879Z,19.45
2016-09-21T06:10:29.390Z,19.47
2016-09-21T06:11:06.655Z,19.47
2016-09-21T06:11:43.286Z,19.53
2016-09-21T06:12:20.407Z,19.52
2016-09-21T06:12:57.871Z,19.52
2016-09-21T06:13:39.882Z,19.49
2016-09-21T06:14:18.383Z,19.56
2016-09-21T06:14:54.895Z,19.49
2016-09-21T06:15:33.990Z,19.6
2016-09-21T06:16:11.897Z,19.5
2016-09-21T06:16:53.889Z,19.64
2016-09-21T06:17:32.942Z,19.61
2016-09-21T06:18:08.908Z,19.61
2016-09-21T06:18:47.657Z,19.71
2016-09-21T06:19:26.397Z,19.67
2016-09-21T06:20:21.389Z,19.61
2016-09-21T06:21:02.895Z,19.64
2016-09-21T06:21:42.909Z,19.68
2016-09-21T06:22:26.897Z,19.63
2016-09-21T06:23:06.399Z,19.7
2016-09-21T06:23:45.397Z,19.7
2016-09-21T06:24:21.888Z,19.71
2016-09-21T06:25:01.876Z,19.67
2016-09-21T06:25:41.663Z,19.75
2016-09-21T06:26:25.389Z,19.72
2016-09-21T06:27:11.876Z,19.68
2016-09-21T06:27:57.389Z,19.7
2016-09-21T06:28:36.148Z,19.75
2016-09-21T06:29:16.888Z,19.74
2016-09-21T06:29:58.387Z,19.82
2016-09-21T06:30:40.151Z,19.8
2016-09-21T06:31:20.397Z,19.74
2016-09-21T06:32:03.207Z,19.8
2016-09-21T06:32:40.914Z,19.86
2016-09-21T06:33:18.399Z,19.78
2016-09-21T06:34:14.891Z,19.8
2016-09-21T06:34:51.911Z,19.82
2016-09-21T06:35:30.882Z,19.78
2016-09-21T06:36:09.404Z,19.85
2016-09-21T06:36:48.890Z,19.85
2016-09-21T06:37:30.393Z,19.89
2016-09-21T06:38:09.404Z,19.85
2016-09-21T06:38:47.901Z,19.85
2016-09-21T06:39:27.395Z,19.87
2016-09-21T06:40:05.415Z,19.93
2016-09-21T06:40:42.385Z,19.98
2016-09-21T06:41:19.901Z,19.93
2016-09-21T06:41:58.397Z,19.98
2016-09-21T06:42:36.184Z,19.95
2016-09-21T06:43:14.889Z,20.02
2016-09-21T06:43:53.111Z,19.98
2016-09-21T06:44:31.896Z,20.02
2016-09-21T06:45:10.400Z,20.02
2016-09-21T06:45:50.896Z,20.07
2016-09-21T06:46:30.399Z,20.05
2016-09-21T06:47:10.890Z,20
2016-09-21T06:47:47.713Z,20.1
2016-09-21T06:48:24.890Z,20.12
2016-09-21T06:49:02.901Z,20.11
2016-09-21T06:49:47.402Z,20.15
2016-09-21T06:50:25.892Z,20.1
2016-09-21T06:51:06.898Z,20.18
2016-09-21T06:51:45.396Z,20.15
2016-09-21T06:52:37.593Z,20.19
2016-09-21T06:53:16.908Z,20.15
2016-09-21T06:53:54.408Z,20.16
2016-09-21T06:54:31.904Z,20.29
2016-09-21T06:55:10.910Z,20.26
2016-09-21T06:55:52.893Z,20.32
2016-09-21T06:56:30.557Z,20.26
2016-09-21T06:57:12.595Z,20.29
2016-09-21T06:57:55.422Z,20.34
2016-09-21T06:58:34.898Z,20.23
2016-09-21T06:59:28.914Z,20.41
2016-09-21T07:00:08.910Z,20.46
2016-09-21T07:01:02.890Z,20.44
2016-09-21T07:01:43.495Z,20.32
2016-09-21T07:02:22.408Z,20.48
2016-09-21T07:03:22.403Z,20.46
2016-09-21T07:04:02.395Z,20.48
2016-09-21T07:05:00.911Z,20.51
2016-09-21T07:05:38.140Z,20.53
2016-09-21T07:06:12.892Z,20.56
2016-09-21T07:06:50.910Z,20.56
2016-09-21T07:07:29.090Z,20.57
2016-09-21T07:08:09.401Z,20.54
2016-09-21T07:08:46.415Z,20.57
2016-09-21T07:09:24.401Z,20.67
2016-09-21T07:10:02.105Z,20.71
2016-09-21T07:10:40.248Z,20.71